Aviation

FTHA31 MTPP 201700
TAF MTPP 201700Z 2018/2118 10010G20KT 7000 FEW026 BKN070
PROB40 TEMPO 2100/2104 4500 SHRA SCT014CB BKN060
BECMG 2108/2112 VRB02KT 8000 NSW FEW020
TEMPO 2114/2118 09010G20KT=